sensor_id;sensor_type;location;lat;lon;timestamp;pressure;altitude;pressure_sealevel;temperature;humidity
56040;BME280;43937;41.366;2.072;2023-11-19T00:02:12;101594.00;;;14.69;78.24
56040;BME280;43937;41.366;2.072;2023-11-19T00:04:38;101597.59;;;14.70;77.94
56040;BME280;43937;41.366;2.072;2023-11-19T00:10:19;101583.41;;;14.74;76.68
56040;BME280;43937;41.366;2.072;2023-11-19T00:15:29;101573.78;;;14.78;75.85
56040;BME280;43937;41.366;2.072;2023-11-19T00:19:03;101574.81;;;14.61;74.43
56040;BME280;43937;41.366;2.072;2023-11-19T00:23:37;101571.59;;;14.57;73.68
56040;BME280;43937;41.366;2.072;2023-11-19T00:26:02;101579.47;;;14.69;72.77
56040;BME280;43937;41.366;2.072;2023-11-19T00:28:31;101567.09;;;14.81;71.79
56040;BME280;43937;41.366;2.072;2023-11-19T00:30:58;101578.72;;;14.91;71.45
56040;BME280;43937;41.366;2.072;2023-11-19T00:33:23;101574.63;;;14.95;70.49
56040;BME280;43937;41.366;2.072;2023-11-19T00:35:49;101570.34;;;14.84;70.83
56040;BME280;43937;41.366;2.072;2023-11-19T00:38:15;101567.41;;;14.94;71.34
56040;BME280;43937;41.366;2.072;2023-11-19T00:40:40;101571.34;;;14.92;70.98
56040;BME280;43937;41.366;2.072;2023-11-19T00:43:26;101574.31;;;14.74;71.38
56040;BME280;43937;41.366;2.072;2023-11-19T00:45:52;101571.41;;;14.67;71.16
56040;BME280;43937;41.366;2.072;2023-11-19T00:48:17;101567.66;;;14.52;71.46
56040;BME280;43937;41.366;2.072;2023-11-19T00:51:55;101568.50;;;14.44;71.37
56040;BME280;43937;41.366;2.072;2023-11-19T00:54:20;101549.50;;;14.26;71.82
56040;BME280;43937;41.366;2.072;2023-11-19T00:56:46;101564.75;;;14.53;71.24
56040;BME280;43937;41.366;2.072;2023-11-19T01:00:45;101561.13;;;14.44;70.94
56040;BME280;43937;41.366;2.072;2023-11-19T01:03:10;101553.06;;;14.43;70.65
56040;BME280;43937;41.366;2.072;2023-11-19T01:05:37;101570.53;;;14.50;70.19
56040;BME280;43937;41.366;2.072;2023-11-19T01:08:02;101546.72;;;14.42;70.10
56040;BME280;43937;41.366;2.072;2023-11-19T01:10:29;101559.22;;;14.37;69.99
56040;BME280;43937;41.366;2.072;2023-11-19T01:15:09;101536.63;;;14.43;69.34
56040;BME280;43937;41.366;2.072;2023-11-19T01:17:36;101552.22;;;14.42;69.77
56040;BME280;43937;41.366;2.072;2023-11-19T01:22:06;101536.66;;;14.27;69.31
56040;BME280;43937;41.366;2.072;2023-11-19T01:24:31;101550.69;;;14.32;69.49
56040;BME280;43937;41.366;2.072;2023-11-19T01:26:57;101553.59;;;14.30;69.67
56040;BME280;43937;41.366;2.072;2023-11-19T01:29:22;101554.44;;;14.31;70.03
56040;BME280;43937;41.366;2.072;2023-11-19T01:38:36;101559.25;;;14.20;70.69
56040;BME280;43937;41.366;2.072;2023-11-19T01:41:02;101542.78;;;14.12;70.94
56040;BME280;43937;41.366;2.072;2023-11-19T01:45:41;101526.88;;;14.00;70.58
56040;BME280;43937;41.366;2.072;2023-11-19T01:50:01;101557.72;;;14.26;70.12
56040;BME280;43937;41.366;2.072;2023-11-19T01:59:23;101542.66;;;14.55;68.15
56040;BME280;43937;41.366;2.072;2023-11-19T02:04:01;101533.22;;;14.65;66.82
56040;BME280;43937;41.366;2.072;2023-11-19T02:06:27;101506.19;;;14.54;66.14
56040;BME280;43937;41.366;2.072;2023-11-19T02:08:53;101537.28;;;14.86;66.00
56040;BME280;43937;41.366;2.072;2023-11-19T02:11:18;101522.22;;;14.82;65.89
56040;BME280;43937;41.366;2.072;2023-11-19T02:16:58;101501.69;;;14.70;65.31
56040;BME280;43937;41.366;2.072;2023-11-19T02:19:23;101520.66;;;14.79;65.21
56040;BME280;43937;41.366;2.072;2023-11-19T02:21:49;101526.16;;;14.79;65.03
56040;BME280;43937;41.366;2.072;2023-11-19T02:24:17;101533.22;;;14.74;65.25
56040;BME280;43937;41.366;2.072;2023-11-19T02:31:01;101525.34;;;14.62;65.53
56040;BME280;43937;41.366;2.072;2023-11-19T02:33:27;101503.94;;;14.50;65.57
56040;BME280;43937;41.366;2.072;2023-11-19T02:36:42;101514.59;;;14.53;66.25
56040;BME280;43937;41.366;2.072;2023-11-19T02:41:26;101519.84;;;14.46;66.78
56040;BME280;43937;41.366;2.072;2023-11-19T02:44:30;101507.69;;;14.49;66.92
56040;BME280;43937;41.366;2.072;2023-11-19T02:52:20;101510.47;;;14.40;66.60
56040;BME280;43937;41.366;2.072;2023-11-19T02:55:25;101499.16;;;14.43;67.13
56040;BME280;43937;41.366;2.072;2023-11-19T03:01:25;101485.81;;;14.32;66.64
56040;BME280;43937;41.366;2.072;2023-11-19T03:06:34;101491.63;;;14.62;65.95
56040;BME280;43937;41.366;2.072;2023-11-19T03:09:00;101481.50;;;14.62;65.69
56040;BME280;43937;41.366;2.072;2023-11-19T03:11:31;101483.53;;;14.77;64.95
56040;BME280;43937;41.366;2.072;2023-11-19T03:13:56;101481.31;;;14.72;64.69
56040;BME280;43937;41.366;2.072;2023-11-19T03:16:32;101471.69;;;14.76;64.16
56040;BME280;43937;41.366;2.072;2023-11-19T03:25:34;101467.22;;;14.83;64.43
56040;BME280;43937;41.366;2.072;2023-11-19T03:30:03;101486.53;;;14.98;64.63
56040;BME280;43937;41.366;2.072;2023-11-19T03:32:32;101496.13;;;14.94;64.30
56040;BME280;43937;41.366;2.072;2023-11-19T03:36:19;101477.66;;;14.88;64.43
56040;BME280;43937;41.366;2.072;2023-11-19T03:38:44;101481.44;;;14.87;64.44
56040;BME280;43937;41.366;2.072;2023-11-19T03:42:49;101486.63;;;14.74;65.00
56040;BME280;43937;41.366;2.072;2023-11-19T03:45:14;101467.81;;;14.62;65.15
56040;BME280;43937;41.366;2.072;2023-11-19T03:47:41;101484.53;;;14.84;64.69
56040;BME280;43937;41.366;2.072;2023-11-19T03:55:18;101483.88;;;14.74;65.25
56040;BME280;43937;41.366;2.072;2023-11-19T03:57:43;101479.47;;;14.56;65.56
56040;BME280;43937;41.366;2.072;2023-11-19T04:00:09;101466.59;;;14.49;65.51
56040;BME280;43937;41.366;2.072;2023-11-19T04:08:35;101464.75;;;14.41;65.23
56040;BME280;43937;41.366;2.072;2023-11-19T04:19:03;101463.91;;;13.91;67.14
56040;BME280;43937;41.366;2.072;2023-11-19T04:22:08;101482.41;;;13.97;67.38
56040;BME280;43937;41.366;2.072;2023-11-19T04:24:34;101483.97;;;13.92;67.82
56040;BME280;43937;41.366;2.072;2023-11-19T04:28:15;101484.28;;;13.72;68.67
56040;BME280;43937;41.366;2.072;2023-11-19T04:30:41;101480.69;;;13.80;68.99
56040;BME280;43937;41.366;2.072;2023-11-19T04:39:50;101463.03;;;13.58;69.47
56040;BME280;43937;41.366;2.072;2023-11-19T04:42:15;101451.25;;;13.58;69.33
56040;BME280;43937;41.366;2.072;2023-11-19T04:44:43;101464.59;;;13.52;69.80
56040;BME280;43937;41.366;2.072;2023-11-19T04:47:08;101469.41;;;13.59;69.96
56040;BME280;43937;41.366;2.072;2023-11-19T04:55:44;101455.38;;;13.62;69.56
56040;BME280;43937;41.366;2.072;2023-11-19T04:59:25;101446.63;;;13.50;69.68
56040;BME280;43937;41.366;2.072;2023-11-19T05:05:55;101438.75;;;13.55;69.29
56040;BME280;43937;41.366;2.072;2023-11-19T05:08:20;101434.84;;;13.58;68.76
56040;BME280;43937;41.366;2.072;2023-11-19T05:10:46;101465.63;;;13.76;68.98
56040;BME280;43937;41.366;2.072;2023-11-19T05:18:03;101443.41;;;13.71;68.45
56040;BME280;43937;41.366;2.072;2023-11-19T05:20:59;101457.94;;;13.80;69.03
56040;BME280;43937;41.366;2.072;2023-11-19T05:23:25;101460.00;;;13.78;69.01
56040;BME280;43937;41.366;2.072;2023-11-19T05:39:18;101453.50;;;13.95;67.83
56040;BME280;43937;41.366;2.072;2023-11-19T05:43:59;101459.47;;;14.15;66.91
56040;BME280;43937;41.366;2.072;2023-11-19T05:50:00;101461.88;;;14.18;66.94
56040;BME280;43937;41.366;2.072;2023-11-19T05:53:09;101436.53;;;14.16;66.50
56040;BME280;43937;41.366;2.072;2023-11-19T05:55:39;101454.34;;;14.20;66.50
56040;BME280;43937;41.366;2.072;2023-11-19T05:58:25;101458.63;;;14.14;66.38
56040;BME280;43937;41.366;2.072;2023-11-19T06:00:52;101416.88;;;13.88;66.57
56040;BME280;43937;41.366;2.072;2023-11-19T06:04:48;101460.50;;;14.14;66.40
56040;BME280;43937;41.366;2.072;2023-11-19T06:08:24;101423.06;;;13.98;66.70
56040;BME280;43937;41.366;2.072;2023-11-19T06:10:52;101447.66;;;14.06;67.04
56040;BME280;43937;41.366;2.072;2023-11-19T06:13:17;101441.50;;;14.12;66.98
56040;BME280;43937;41.366;2.072;2023-11-19T06:19:20;101406.28;;;13.85;67.00
56040;BME280;43937;41.366;2.072;2023-11-19T06:21:46;101451.25;;;14.15;66.89
56040;BME280;43937;41.366;2.072;2023-11-19T06:24:11;101439.97;;;14.10;67.07
56040;BME280;43937;41.366;2.072;2023-11-19T06:26:37;101457.78;;;14.06;67.24
56040;BME280;43937;41.366;2.072;2023-11-19T06:29:03;101464.44;;;14.03;67.29
56040;BME280;43937;41.366;2.072;2023-11-19T06:32:30;101452.81;;;14.01;67.17
56040;BME280;43937;41.366;2.072;2023-11-19T06:36:24;101461.34;;;13.82;67.59
56040;BME280;43937;41.366;2.072;2023-11-19T06:38:49;101462.75;;;13.86;67.81
56040;BME280;43937;41.366;2.072;2023-11-19T06:43:27;101463.25;;;13.65;68.17
56040;BME280;43937;41.366;2.072;2023-11-19T06:49:06;101492.31;;;13.90;68.05
56040;BME280;43937;41.366;2.072;2023-11-19T06:55:27;101508.53;;;13.67;68.49
56040;BME280;43937;41.366;2.072;2023-11-19T06:57:53;101498.28;;;13.53;68.73
56040;BME280;43937;41.366;2.072;2023-11-19T07:01:41;101496.19;;;13.55;68.81
56040;BME280;43937;41.366;2.072;2023-11-19T07:04:11;101499.16;;;13.62;68.85
56040;BME280;43937;41.366;2.072;2023-11-19T07:06:37;101502.69;;;13.54;69.39
56040;BME280;43937;41.366;2.072;2023-11-19T07:09:03;101498.47;;;13.68;68.71
56040;BME280;43937;41.366;2.072;2023-11-19T07:13:49;101264.13;;;12.44;67.97
56040;BME280;43937;41.366;2.072;2023-11-19T07:19:01;101474.69;;;13.77;67.80
56040;BME280;43937;41.366;2.072;2023-11-19T07:21:27;101510.31;;;14.01;67.43
56040;BME280;43937;41.366;2.072;2023-11-19T07:23:55;101506.34;;;13.87;68.09
56040;BME280;43937;41.366;2.072;2023-11-19T07:27:52;101516.63;;;14.10;67.53
56040;BME280;43937;41.366;2.072;2023-11-19T07:37:36;101522.91;;;14.84;76.74
56040;BME280;43937;41.366;2.072;2023-11-19T07:40:01;101529.97;;;15.18;67.38
56040;BME280;43937;41.366;2.072;2023-11-19T07:42:27;101535.91;;;14.82;66.02
56040;BME280;43937;41.366;2.072;2023-11-19T07:46:11;101526.69;;;14.75;65.09
56040;BME280;43937;41.366;2.072;2023-11-19T07:48:38;101544.19;;;14.74;64.74
56040;BME280;43937;41.366;2.072;2023-11-19T07:52:01;101526.97;;;14.96;65.02
56040;BME280;43937;41.366;2.072;2023-11-19T07:55:29;101535.75;;;15.31;69.77
56040;BME280;43937;41.366;2.072;2023-11-19T08:11:49;101509.56;;;15.51;61.40
56040;BME280;43937;41.366;2.072;2023-11-19T08:22:16;101572.94;;;18.69;53.02
56040;BME280;43937;41.366;2.072;2023-11-19T08:31:42;101553.34;;;21.68;43.40
56040;BME280;43937;41.366;2.072;2023-11-19T08:34:07;101564.25;;;21.63;43.89
56040;BME280;43937;41.366;2.072;2023-11-19T08:38:00;101559.75;;;19.21;48.53
56040;BME280;43937;41.366;2.072;2023-11-19T08:46:47;101579.75;;;17.36;54.58
56040;BME280;43937;41.366;2.072;2023-11-19T08:50:35;101567.53;;;17.24;55.05
56040;BME280;43937;41.366;2.072;2023-11-19T08:53:54;101584.88;;;17.39;55.08
56040;BME280;43937;41.366;2.072;2023-11-19T08:56:20;101555.66;;;17.24;54.98
56040;BME280;43937;41.366;2.072;2023-11-19T08:59:27;101559.69;;;17.57;54.40
56040;BME280;43937;41.366;2.072;2023-11-19T09:03:07;101539.13;;;17.53;53.84
56040;BME280;43937;41.366;2.072;2023-11-19T09:05:34;101572.97;;;17.83;53.91
56040;BME280;43937;41.366;2.072;2023-11-19T09:08:00;101583.75;;;18.00;53.82
56040;BME280;43937;41.366;2.072;2023-11-19T09:14:02;101523.31;;;17.77;53.21
56040;BME280;43937;41.366;2.072;2023-11-19T09:16:50;101573.94;;;18.34;53.10
56040;BME280;43937;41.366;2.072;2023-11-19T09:20:30;101589.53;;;18.48;52.04
56040;BME280;43937;41.366;2.072;2023-11-19T09:23:03;101486.94;;;18.03;52.39
56040;BME280;43937;41.366;2.072;2023-11-19T09:25:28;101540.34;;;18.51;51.58
56040;BME280;43937;41.366;2.072;2023-11-19T09:30:52;101589.28;;;18.92;51.60
56040;BME280;43937;41.366;2.072;2023-11-19T09:33:18;101585.50;;;19.00;51.23
56040;BME280;43937;41.366;2.072;2023-11-19T09:35:43;101587.34;;;19.21;50.96
56040;BME280;43937;41.366;2.072;2023-11-19T09:39:25;101582.75;;;19.00;51.14
56040;BME280;43937;41.366;2.072;2023-11-19T09:42:44;101587.53;;;19.13;51.10
56040;BME280;43937;41.366;2.072;2023-11-19T09:45:15;101573.75;;;19.19;50.60
56040;BME280;43937;41.366;2.072;2023-11-19T09:50:10;101606.34;;;19.37;50.34
56040;BME280;43937;41.366;2.072;2023-11-19T09:53:00;101578.66;;;19.24;50.76
56040;BME280;43937;41.366;2.072;2023-11-19T09:57:24;101535.56;;;19.23;49.81
56040;BME280;43937;41.366;2.072;2023-11-19T09:59:51;101568.44;;;19.59;49.51
56040;BME280;43937;41.366;2.072;2023-11-19T10:11:31;101591.25;;;19.75;49.14
56040;BME280;43937;41.366;2.072;2023-11-19T10:23:11;101594.09;;;19.95;49.07
56040;BME280;43937;41.366;2.072;2023-11-19T10:30:56;101604.66;;;20.66;49.87
56040;BME280;43937;41.366;2.072;2023-11-19T10:35:13;101587.84;;;20.74;50.04
56040;BME280;43937;41.366;2.072;2023-11-19T10:41:29;101582.31;;;20.80;50.60
56040;BME280;43937;41.366;2.072;2023-11-19T10:44:09;101586.34;;;20.78;50.18
56040;BME280;43937;41.366;2.072;2023-11-19T10:46:41;101575.09;;;20.79;52.42
56040;BME280;43937;41.366;2.072;2023-11-19T10:52:56;101533.59;;;20.53;54.79
56040;BME280;43937;41.366;2.072;2023-11-19T10:56:25;101517.66;;;20.55;55.35
56040;BME280;43937;41.366;2.072;2023-11-19T11:00:57;101542.53;;;20.62;57.27
56040;BME280;43937;41.366;2.072;2023-11-19T11:03:40;101542.94;;;20.85;56.47
56040;BME280;43937;41.366;2.072;2023-11-19T11:07:01;101532.50;;;20.41;57.55
56040;BME280;43937;41.366;2.072;2023-11-19T11:09:27;101515.09;;;20.53;57.15
56040;BME280;43937;41.366;2.072;2023-11-19T11:14:37;101549.53;;;20.97;57.93
56040;BME280;43937;41.366;2.072;2023-11-19T11:17:39;101545.28;;;20.81;59.16
56040;BME280;43937;41.366;2.072;2023-11-19T11:20:05;101532.06;;;20.90;58.90
56040;BME280;43937;41.366;2.072;2023-11-19T11:29:17;101529.91;;;20.99;57.81
56040;BME280;43937;41.366;2.072;2023-11-19T11:39:47;101492.47;;;20.90;57.70
56040;BME280;43937;41.366;2.072;2023-11-19T11:45:03;101514.34;;;21.11;57.08
56040;BME280;43937;41.366;2.072;2023-11-19T11:49:27;101489.00;;;21.08;56.98
56040;BME280;43937;41.366;2.072;2023-11-19T11:51:59;101481.38;;;20.96;56.85
56040;BME280;43937;41.366;2.072;2023-11-19T12:08:34;101464.84;;;21.41;54.34
56040;BME280;43937;41.366;2.072;2023-11-19T12:11:00;101478.03;;;21.33;54.55
56040;BME280;43937;41.366;2.072;2023-11-19T12:19:27;101472.09;;;21.42;53.94
56040;BME280;43937;41.366;2.072;2023-11-19T12:21:52;101444.63;;;21.34;54.12
56040;BME280;43937;41.366;2.072;2023-11-19T12:27:08;101459.94;;;21.43;55.32
56040;BME280;43937;41.366;2.072;2023-11-19T12:39:16;101444.19;;;21.37;60.57
56040;BME280;43937;41.366;2.072;2023-11-19T12:42:06;101421.22;;;21.37;60.75
56040;BME280;43937;41.366;2.072;2023-11-19T12:47:17;101386.84;;;21.06;61.19
56040;BME280;43937;41.366;2.072;2023-11-19T12:50:23;101446.09;;;21.30;60.70
56040;BME280;43937;41.366;2.072;2023-11-19T12:52:56;101423.03;;;21.04;61.43
56040;BME280;43937;41.366;2.072;2023-11-19T12:55:29;101415.41;;;21.00;61.24
56040;BME280;43937;41.366;2.072;2023-11-19T13:01:15;101403.50;;;20.86;60.86
56040;BME280;43937;41.366;2.072;2023-11-19T13:04:56;101405.78;;;21.02;60.93
56040;BME280;43937;41.366;2.072;2023-11-19T13:14:37;101408.25;;;20.66;62.16
56040;BME280;43937;41.366;2.072;2023-11-19T13:20:53;101386.56;;;20.63;58.38
56040;BME280;43937;41.366;2.072;2023-11-19T13:24:59;101396.28;;;20.85;57.77
56040;BME280;43937;41.366;2.072;2023-11-19T13:27:24;101392.78;;;21.10;57.50
56040;BME280;43937;41.366;2.072;2023-11-19T13:29:50;101381.13;;;20.94;59.05
56040;BME280;43937;41.366;2.072;2023-11-19T13:35:35;101364.22;;;20.64;59.55
56040;BME280;43937;41.366;2.072;2023-11-19T13:43:12;101242.53;;;19.99;58.88
56040;BME280;43937;41.366;2.072;2023-11-19T13:45:38;101260.59;;;20.02;60.26
56040;BME280;43937;41.366;2.072;2023-11-19T13:53:14;101356.69;;;20.91;59.25
56040;BME280;43937;41.366;2.072;2023-11-19T13:57:50;101369.41;;;20.99;60.29
56040;BME280;43937;41.366;2.072;2023-11-19T14:01:39;101366.41;;;21.00;59.76
56040;BME280;43937;41.366;2.072;2023-11-19T14:04:05;101352.41;;;20.89;59.53
56040;BME280;43937;41.366;2.072;2023-11-19T14:08:41;101298.84;;;20.76;59.54
56040;BME280;43937;41.366;2.072;2023-11-19T14:12:12;101349.38;;;21.35;59.75
56040;BME280;43937;41.366;2.072;2023-11-19T14:17:24;101336.91;;;21.19;60.86
56040;BME280;43937;41.366;2.072;2023-11-19T14:19:50;101331.34;;;21.26;59.90
56040;BME280;43937;41.366;2.072;2023-11-19T14:22:15;101358.53;;;21.42;60.29
56040;BME280;43937;41.366;2.072;2023-11-19T14:25:23;101343.63;;;21.43;59.77
56040;BME280;43937;41.366;2.072;2023-11-19T14:29:35;101338.25;;;21.48;59.35
56040;BME280;43937;41.366;2.072;2023-11-19T14:34:04;101336.63;;;21.34;60.23
56040;BME280;43937;41.366;2.072;2023-11-19T14:36:41;101334.66;;;21.41;60.08
56040;BME280;43937;41.366;2.072;2023-11-19T14:42:07;101351.59;;;21.58;61.14
56040;BME280;43937;41.366;2.072;2023-11-19T14:47:52;101327.47;;;21.27;66.32
56040;BME280;43937;41.366;2.072;2023-11-19T14:50:19;101317.59;;;21.13;67.41
56040;BME280;43937;41.366;2.072;2023-11-19T14:53:58;101334.41;;;21.11;67.35
56040;BME280;43937;41.366;2.072;2023-11-19T14:56:23;101348.03;;;21.13;67.90
56040;BME280;43937;41.366;2.072;2023-11-19T14:58:49;101343.38;;;21.07;68.17
56040;BME280;43937;41.366;2.072;2023-11-19T15:01:16;101343.88;;;20.90;69.50
56040;BME280;43937;41.366;2.072;2023-11-19T15:06:49;101294.41;;;20.04;72.21
56040;BME280;43937;41.366;2.072;2023-11-19T15:11:23;101336.47;;;20.12;72.27
56040;BME280;43937;41.366;2.072;2023-11-19T15:13:49;101331.38;;;20.09;73.54
56040;BME280;43937;41.366;2.072;2023-11-19T15:22:13;101351.75;;;19.55;79.32
56040;BME280;43937;41.366;2.072;2023-11-19T15:24:39;101335.63;;;19.45;80.49
56040;BME280;43937;41.366;2.072;2023-11-19T15:28:19;101331.56;;;19.28;81.64
56040;BME280;43937;41.366;2.072;2023-11-19T15:31:23;101349.19;;;19.60;79.93
56040;BME280;43937;41.366;2.072;2023-11-19T15:36:20;101334.47;;;19.07;82.76
56040;BME280;43937;41.366;2.072;2023-11-19T15:41:41;101347.03;;;18.61;85.46
56040;BME280;43937;41.366;2.072;2023-11-19T16:00:46;101334.22;;;17.84;90.30
56040;BME280;43937;41.366;2.072;2023-11-19T16:20:20;101265.44;;;17.13;92.36
56040;BME280;43937;41.366;2.072;2023-11-19T16:22:51;101371.00;;;17.55;94.55
56040;BME280;43937;41.366;2.072;2023-11-19T16:30:00;101116.75;;;15.63;98.80
56040;BME280;43937;41.366;2.072;2023-11-19T16:33:29;101376.03;;;17.08;100.00
56040;BME280;43937;41.366;2.072;2023-11-19T16:35:58;101290.69;;;16.65;100.00
56040;BME280;43937;41.366;2.072;2023-11-19T16:38:24;101149.03;;;15.75;99.71
56040;BME280;43937;41.366;2.072;2023-11-19T16:42:55;101265.31;;;16.48;100.00
56040;BME280;43937;41.366;2.072;2023-11-19T16:47:21;101301.97;;;16.70;100.00
56040;BME280;43937;41.366;2.072;2023-11-19T16:53:59;101307.06;;;16.74;100.00
56040;BME280;43937;41.366;2.072;2023-11-19T17:03:06;101153.59;;;15.83;100.00
56040;BME280;43937;41.366;2.072;2023-11-19T17:05:40;101382.88;;;17.34;100.00
56040;BME280;43937;41.366;2.072;2023-11-19T17:13:53;101195.16;;;15.95;100.00
56040;BME280;43937;41.366;2.072;2023-11-19T17:16:19;101392.34;;;17.10;100.00
56040;BME280;43937;41.366;2.072;2023-11-19T17:20:23;101253.72;;;16.68;100.00
56040;BME280;43937;41.366;2.072;2023-11-19T17:22:51;101181.53;;;16.23;98.65
56040;BME280;43937;41.366;2.072;2023-11-19T17:31:58;101134.94;;;15.78;99.92
56040;BME280;43937;41.366;2.072;2023-11-19T17:35:49;101231.06;;;16.30;99.61
56040;BME280;43937;41.366;2.072;2023-11-19T17:45:30;101180.25;;;16.04;100.00
56040;BME280;43937;41.366;2.072;2023-11-19T17:49:25;101194.16;;;16.02;100.00
56040;BME280;43937;41.366;2.072;2023-11-19T17:52:37;101389.56;;;17.46;99.73
56040;BME280;43937;41.366;2.072;2023-11-19T17:55:09;101161.13;;;16.11;99.37
56040;BME280;43937;41.366;2.072;2023-11-19T17:57:57;101195.28;;;16.23;98.80
56040;BME280;43937;41.366;2.072;2023-11-19T18:11:55;101388.47;;;18.12;93.35
56040;BME280;43937;41.366;2.072;2023-11-19T18:14:21;101404.16;;;18.11;94.14
56040;BME280;43937;41.366;2.072;2023-11-19T18:16:49;101390.59;;;17.88;94.86
56040;BME280;43937;41.366;2.072;2023-11-19T18:28:09;101382.59;;;17.72;96.02
56040;BME280;43937;41.366;2.072;2023-11-19T18:31:16;101405.88;;;17.69;96.65
56040;BME280;43937;41.366;2.072;2023-11-19T18:38:01;101417.50;;;17.86;97.13
56040;BME280;43937;41.366;2.072;2023-11-19T18:43:10;101410.22;;;17.78;96.88
56040;BME280;43937;41.366;2.072;2023-11-19T18:46:24;101414.50;;;17.81;96.59
56040;BME280;43937;41.366;2.072;2023-11-19T18:48:49;101357.00;;;17.50;96.33
56040;BME280;43937;41.366;2.072;2023-11-19T18:56:41;101410.94;;;17.66;95.85
56040;BME280;43937;41.366;2.072;2023-11-19T19:03:17;101398.00;;;17.45;96.04
56040;BME280;43937;41.366;2.072;2023-11-19T19:08:19;101399.59;;;17.54;96.47
56040;BME280;43937;41.366;2.072;2023-11-19T19:12:30;101420.25;;;17.65;96.49
56040;BME280;43937;41.366;2.072;2023-11-19T19:14:56;101409.41;;;17.42;96.25
56040;BME280;43937;41.366;2.072;2023-11-19T19:17:23;101398.22;;;17.43;97.55
56040;BME280;43937;41.366;2.072;2023-11-19T19:20:02;101414.91;;;17.42;97.49
56040;BME280;43937;41.366;2.072;2023-11-19T19:24:37;101392.72;;;17.43;96.81
56040;BME280;43937;41.366;2.072;2023-11-19T19:27:03;101407.06;;;17.60;95.86
56040;BME280;43937;41.366;2.072;2023-11-19T19:31:14;101433.41;;;17.69;95.88
56040;BME280;43937;41.366;2.072;2023-11-19T19:33:43;101406.16;;;17.53;95.52
56040;BME280;43937;41.366;2.072;2023-11-19T19:37:51;101408.75;;;17.39;95.34
56040;BME280;43937;41.366;2.072;2023-11-19T19:40:16;101428.75;;;17.48;95.54
56040;BME280;43937;41.366;2.072;2023-11-19T19:44:30;101438.38;;;17.37;95.92
56040;BME280;43937;41.366;2.072;2023-11-19T19:47:48;101424.22;;;17.04;97.19
56040;BME280;43937;41.366;2.072;2023-11-19T19:52:04;101441.59;;;17.05;98.54
56040;BME280;43937;41.366;2.072;2023-11-19T19:54:29;101440.44;;;17.14;98.54
56040;BME280;43937;41.366;2.072;2023-11-19T19:59:01;101406.69;;;16.90;98.76
56040;BME280;43937;41.366;2.072;2023-11-19T20:03:33;101421.56;;;16.96;98.78
56040;BME280;43937;41.366;2.072;2023-11-19T20:05:59;101424.69;;;17.08;98.55
56040;BME280;43937;41.366;2.072;2023-11-19T20:08:25;101437.13;;;17.04;98.77
56040;BME280;43937;41.366;2.072;2023-11-19T20:11:24;101423.78;;;17.01;98.72
56040;BME280;43937;41.366;2.072;2023-11-19T20:13:51;101429.94;;;16.88;99.35
56040;BME280;43937;41.366;2.072;2023-11-19T20:22:44;101440.66;;;16.83;100.00
56040;BME280;43937;41.366;2.072;2023-11-19T20:25:25;101431.63;;;16.59;100.00
56040;BME280;43937;41.366;2.072;2023-11-19T20:30:00;101412.38;;;16.30;100.00
56040;BME280;43937;41.366;2.072;2023-11-19T20:34:03;101431.50;;;16.23;100.00
56040;BME280;43937;41.366;2.072;2023-11-19T20:37:15;101416.72;;;16.24;100.00
56040;BME280;43937;41.366;2.072;2023-11-19T20:41:17;101421.84;;;16.27;100.00
56040;BME280;43937;41.366;2.072;2023-11-19T20:52:37;101428.22;;;15.90;100.00
56040;BME280;43937;41.366;2.072;2023-11-19T20:56:40;101425.34;;;15.83;100.00
56040;BME280;43937;41.366;2.072;2023-11-19T20:59:59;101412.28;;;15.85;100.00
56040;BME280;43937;41.366;2.072;2023-11-19T21:03:34;101419.59;;;15.70;100.00
56040;BME280;43937;41.366;2.072;2023-11-19T21:12:44;101396.28;;;15.74;100.00
56040;BME280;43937;41.366;2.072;2023-11-19T21:15:11;101423.66;;;15.97;100.00
56040;BME280;43937;41.366;2.072;2023-11-19T21:19:01;101416.44;;;15.81;100.00
56040;BME280;43937;41.366;2.072;2023-11-19T21:21:27;101415.66;;;15.64;100.00
56040;BME280;43937;41.366;2.072;2023-11-19T21:25:27;101428.19;;;15.67;100.00
56040;BME280;43937;41.366;2.072;2023-11-19T21:27:54;101428.72;;;15.70;100.00
56040;BME280;43937;41.366;2.072;2023-11-19T21:30:20;101429.25;;;15.89;100.00
56040;BME280;43937;41.366;2.072;2023-11-19T21:33:03;101397.03;;;15.60;100.00
56040;BME280;43937;41.366;2.072;2023-11-19T21:35:29;101446.69;;;15.73;100.00
56040;BME280;43937;41.366;2.072;2023-11-19T21:38:16;101436.28;;;15.60;100.00
56040;BME280;43937;41.366;2.072;2023-11-19T21:40:44;101447.75;;;15.64;100.00
56040;BME280;43937;41.366;2.072;2023-11-19T21:43:10;101431.06;;;15.50;100.00
56040;BME280;43937;41.366;2.072;2023-11-19T21:47:05;101434.97;;;15.56;100.00
56040;BME280;43937;41.366;2.072;2023-11-19T21:49:31;101438.06;;;15.53;100.00
56040;BME280;43937;41.366;2.072;2023-11-19T21:52:53;101421.84;;;15.43;100.00
56040;BME280;43937;41.366;2.072;2023-11-19T21:55:18;101395.81;;;15.39;100.00
56040;BME280;43937;41.366;2.072;2023-11-19T21:58:25;101436.03;;;15.78;100.00
56040;BME280;43937;41.366;2.072;2023-11-19T22:00:52;101438.88;;;15.62;100.00
56040;BME280;43937;41.366;2.072;2023-11-19T22:03:34;101418.06;;;15.44;100.00
56040;BME280;43937;41.366;2.072;2023-11-19T22:08:21;101419.88;;;15.52;100.00
56040;BME280;43937;41.366;2.072;2023-11-19T22:12:37;101372.00;;;15.08;100.00
56040;BME280;43937;41.366;2.072;2023-11-19T22:18:59;101432.16;;;15.41;100.00
56040;BME280;43937;41.366;2.072;2023-11-19T22:21:24;101426.66;;;15.41;100.00
56040;BME280;43937;41.366;2.072;2023-11-19T22:28:58;101428.84;;;15.46;100.00
56040;BME280;43937;41.366;2.072;2023-11-19T22:31:25;101405.81;;;15.32;100.00